Time;durP1;ratioP1;P1;durP2;ratioP2;P2;SDS_P1;SDS_P2;PMS_P1;PMS_P2;Temp;Humidity;BMP_temperature;BMP_pressure;BME280_temperature;BME280_humidity;BME280_pressure;Samples;Min_cycle;Max_cycle;Signal;HPM_P1;HPM_P2
2022/12/18 00:01:57;;;;;;;30.90;23.00;;;;;;;;;;10124734;28;20046;-67
2022/12/18 00:06:54;;;;;;;27.48;21.92;;;;;;;;;;10128168;28;20117;-68
2022/12/18 00:11:50;;;;;;;28.92;21.55;;;;;;;;;;10118343;28;20085;-68
2022/12/18 00:16:46;;;;;;;27.02;22.65;;;;;;;;;;10129367;28;20042;-69
2022/12/18 00:21:43;;;;;;;28.30;22.63;;;;;;;;;;10128048;28;20051;-67
2022/12/18 00:26:39;;;;;;;25.98;22.20;;;;;;;;;;10120713;28;20050;-67
2022/12/18 00:31:36;;;;;;;28.67;20.63;;;;;;;;;;10137653;28;20057;-66
2022/12/18 00:36:34;;;;;;;26.98;21.05;;;;;;;;;;10131164;28;20054;-66
2022/12/18 00:46:46;;;;;;;23.30;19.95;;;;;;;;;;10128649;28;20047;-67
2022/12/18 00:51:42;;;;;;;23.25;20.50;;;;;;;;;;10127739;28;20150;-68
2022/12/18 00:56:40;;;;;;;25.25;19.90;;;;;;;;;;10136271;28;20201;-68
2022/12/18 01:01:44;;;;;;;24.23;20.92;;;;;;;;;;10126959;28;20043;-66
2022/12/18 01:06:41;;;;;;;24.70;19.63;;;;;;;;;;10126710;28;20069;-66
2022/12/18 01:11:37;;;;;;;28.17;20.80;;;;;;;;;;10124875;28;20129;-65
2022/12/18 01:16:33;;;;;;;22.55;20.15;;;;;;;;;;10128029;28;20424;-65
2022/12/18 01:21:31;;;;;;;26.00;19.20;;;;;;;;;;10123997;28;20042;-67
2022/12/18 01:26:29;;;;;;;22.85;18.13;;;;;;;;;;10124034;28;20039;-67
2022/12/18 01:31:27;;;;;;;26.08;19.10;;;;;;;;;;10120322;28;20047;-67
2022/12/18 01:36:25;;;;;;;26.10;19.75;;;;;;;;;;10124286;28;20078;-67
2022/12/18 01:41:25;;;;;;;25.20;18.98;;;;;;;;;;10136729;28;20050;-67
2022/12/18 01:46:22;;;;;;;22.20;18.30;;;;;;;;;;10126804;28;20149;-67
2022/12/18 01:51:19;;;;;;;23.35;19.23;;;;;;;;;;10129719;28;20042;-68
2022/12/18 01:56:17;;;;;;;27.90;20.85;;;;;;;;;;10131778;28;20069;-67
2022/12/18 02:01:13;;;;;;;26.20;19.88;;;;;;;;;;10147498;28;20050;-67
2022/12/18 02:06:33;;;;;;;21.50;17.70;;;;;;;;;;10125602;28;20047;-68
2022/12/18 02:11:37;;;;;;;25.00;19.38;;;;;;;;;;10118445;28;20162;-67
2022/12/18 02:16:39;;;;;;;23.92;19.02;;;;;;;;;;10123057;28;20050;-65
2022/12/18 02:21:35;;;;;;;;;;;;;;;;;;10115678;28;20089;-65
2022/12/18 02:26:36;;;;;;;20.73;18.35;;;;;;;;;;10115878;28;20036;-65
2022/12/18 02:31:36;;;;;;;23.48;18.08;;;;;;;;;;10121401;28;20416;-66
2022/12/18 02:36:33;;;;;;;21.90;16.80;;;;;;;;;;10122495;28;20141;-66
2022/12/18 02:41:30;;;;;;;21.65;17.85;;;;;;;;;;10127312;28;20042;-64
2022/12/18 02:46:31;;;;;;;18.52;16.52;;;;;;;;;;10122472;28;20046;-64
2022/12/18 02:51:31;;;;;;;27.13;17.30;;;;;;;;;;10111893;28;20130;-64
2022/12/18 02:56:32;;;;;;;19.92;16.95;;;;;;;;;;10117291;28;20056;-65
2022/12/18 03:01:32;;;;;;;20.45;17.20;;;;;;;;;;10116539;28;20049;-67
2022/12/18 03:06:34;;;;;;;22.92;17.50;;;;;;;;;;10111171;28;20074;-66
2022/12/18 03:16:49;;;;;;;21.08;15.90;;;;;;;;;;10141523;28;20046;-65
2022/12/18 03:21:47;;;;;;;23.45;16.35;;;;;;;;;;10138779;28;20580;-65
2022/12/18 03:26:46;;;;;;;20.92;17.33;;;;;;;;;;10125801;28;20113;-66
2022/12/18 03:31:45;;;;;;;19.33;16.23;;;;;;;;;;10127759;28;20046;-66
2022/12/18 03:36:41;;;;;;;19.90;15.70;;;;;;;;;;10127064;28;20047;-67
2022/12/18 03:41:43;;;;;;;18.23;15.90;;;;;;;;;;10143143;28;20413;-67
2022/12/18 03:46:42;;;;;;;19.73;16.63;;;;;;;;;;10122146;28;20054;-68
2022/12/18 03:51:41;;;;;;;16.85;15.05;;;;;;;;;;10146589;28;20046;-67
2022/12/18 03:56:44;;;;;;;20.70;16.30;;;;;;;;;;10129117;28;20047;-67
2022/12/18 04:01:42;;;;;;;19.58;15.43;;;;;;;;;;10132278;28;20129;-67
2022/12/18 04:06:40;;;;;;;18.10;16.13;;;;;;;;;;10128244;28;20043;-67
2022/12/18 04:11:36;;;;;;;19.35;16.70;;;;;;;;;;10129884;28;20046;-66
2022/12/18 04:16:32;;;;;;;23.52;15.98;;;;;;;;;;10128514;28;20054;-67
2022/12/18 04:21:29;;;;;;;22.02;16.67;;;;;;;;;;10126012;28;20039;-66
2022/12/18 04:26:25;;;;;;;19.35;16.80;;;;;;;;;;10133848;28;20043;-66
2022/12/18 04:31:21;;;;;;;20.02;15.75;;;;;;;;;;10132077;28;20042;-67
2022/12/18 04:36:18;;;;;;;17.45;15.00;;;;;;;;;;10128686;28;20042;-67
2022/12/18 04:41:14;;;;;;;19.42;15.60;;;;;;;;;;10132753;28;20068;-67
2022/12/18 04:46:10;;;;;;;19.58;15.57;;;;;;;;;;10133322;28;20047;-68
2022/12/18 04:51:07;;;;;;;20.70;17.20;;;;;;;;;;10129431;28;20437;-68
2022/12/18 04:56:07;;;;;;;18.52;15.73;;;;;;;;;;10131544;28;20042;-68
2022/12/18 05:01:03;;;;;;;23.45;16.33;;;;;;;;;;10125752;28;20129;-68
2022/12/18 05:06:00;;;;;;;24.58;17.05;;;;;;;;;;10127566;28;20050;-68
2022/12/18 05:11:07;;;;;;;20.25;15.75;;;;;;;;;;10116873;28;20055;-69
2022/12/18 05:16:04;;;;;;;23.00;16.58;;;;;;;;;;10120616;28;20301;-69
2022/12/18 05:21:00;;;;;;;17.52;15.50;;;;;;;;;;10145164;28;20046;-69
2022/12/18 05:25:58;;;;;;;18.23;16.25;;;;;;;;;;10117463;28;20047;-69
2022/12/18 05:30:56;;;;;;;20.52;16.60;;;;;;;;;;10121604;28;20076;-69
2022/12/18 05:35:53;;;;;;;20.30;17.23;;;;;;;;;;10123263;28;20053;-67
2022/12/18 05:40:50;;;;;;;19.15;15.80;;;;;;;;;;10114084;28;20054;-65
2022/12/18 05:45:48;;;;;;;21.15;16.88;;;;;;;;;;10115991;28;20080;-65
2022/12/18 05:50:47;;;;;;;23.85;17.30;;;;;;;;;;10131320;28;20420;-65
2022/12/18 05:55:44;;;;;;;20.08;16.80;;;;;;;;;;10116281;28;20604;-66
2022/12/18 06:00:41;;;;;;;25.45;17.52;;;;;;;;;;10120886;28;20054;-68
2022/12/18 06:05:42;;;;;;;21.83;17.05;;;;;;;;;;10120382;28;20051;-68
2022/12/18 06:10:39;;;;;;;22.33;17.20;;;;;;;;;;10109558;28;20053;-68
2022/12/18 06:15:38;;;;;;;21.58;17.40;;;;;;;;;;10125401;28;20051;-65
2022/12/18 06:20:36;;;;;;;20.67;17.98;;;;;;;;;;10118081;28;20547;-67
2022/12/18 06:25:32;;;;;;;22.30;18.33;;;;;;;;;;10123764;28;20501;-67
2022/12/18 06:30:29;;;;;;;25.48;18.00;;;;;;;;;;10110068;28;20580;-67
2022/12/18 06:35:25;;;;;;;23.83;19.40;;;;;;;;;;10120825;28;20521;-65
2022/12/18 06:40:21;;;;;;;24.63;19.83;;;;;;;;;;10131010;28;20129;-65
2022/12/18 06:45:18;;;;;;;21.42;19.13;;;;;;;;;;10122084;28;20043;-65
2022/12/18 06:50:14;;;;;;;27.20;20.08;;;;;;;;;;10134591;28;20049;-66
2022/12/18 06:55:10;;;;;;;22.35;18.50;;;;;;;;;;10134237;28;20050;-68
2022/12/18 07:00:07;;;;;;;21.73;18.27;;;;;;;;;;10107286;28;20047;-68
2022/12/18 07:05:04;;;;;;;25.70;19.08;;;;;;;;;;10115768;28;20407;-69
2022/12/18 07:10:06;;;;;;;24.58;19.50;;;;;;;;;;10112287;28;20051;-68
2022/12/18 07:15:02;;;;;;;28.55;20.73;;;;;;;;;;10116221;28;20061;-69
2022/12/18 07:19:59;;;;;;;28.25;20.85;;;;;;;;;;10115328;28;20078;-67
2022/12/18 07:24:55;;;;;;;28.33;19.30;;;;;;;;;;10113440;28;20089;-67
2022/12/18 07:29:51;;;;;;;22.25;19.95;;;;;;;;;;10112533;28;20489;-67
2022/12/18 07:34:48;;;;;;;27.25;20.35;;;;;;;;;;10110620;28;20054;-67
2022/12/18 07:39:44;;;;;;;22.55;18.95;;;;;;;;;;10113109;28;20054;-68
2022/12/18 07:44:41;;;;;;;24.77;20.58;;;;;;;;;;10105064;28;20053;-68
2022/12/18 07:49:37;;;;;;;24.63;20.48;;;;;;;;;;10087483;28;20050;-68
2022/12/18 07:54:34;;;;;;;24.08;21.20;;;;;;;;;;10097453;28;20133;-68
2022/12/18 07:59:30;;;;;;;26.23;20.77;;;;;;;;;;10100467;28;20230;-67
2022/12/18 08:04:26;;;;;;;26.33;19.90;;;;;;;;;;10102794;28;20035;-67
2022/12/18 08:09:23;;;;;;;22.30;19.80;;;;;;;;;;10109010;28;20050;-67
2022/12/18 08:14:19;;;;;;;22.40;19.73;;;;;;;;;;10107677;28;20055;-67
2022/12/18 08:19:16;;;;;;;27.67;19.23;;;;;;;;;;10105681;28;20137;-67
2022/12/18 08:24:12;;;;;;;25.70;20.55;;;;;;;;;;10109059;28;20130;-67
2022/12/18 08:29:12;;;;;;;23.65;19.90;;;;;;;;;;10106807;28;20127;-65
2022/12/18 08:34:15;;;;;;;25.77;21.30;;;;;;;;;;10108917;28;20050;-65
2022/12/18 08:39:11;;;;;;;25.30;20.50;;;;;;;;;;10104276;28;20077;-65
2022/12/18 08:49:23;;;;;;;25.83;19.55;;;;;;;;;;10110491;28;20504;-65
2022/12/18 08:54:19;;;;;;;24.67;19.65;;;;;;;;;;10112458;28;20572;-68
2022/12/18 08:59:16;;;;;;;26.23;19.35;;;;;;;;;;10095636;28;20138;-67
2022/12/18 09:04:15;;;;;;;25.65;19.73;;;;;;;;;;10106655;28;20053;-67
2022/12/18 09:09:12;;;;;;;28.77;20.02;;;;;;;;;;10096476;28;20055;-67
2022/12/18 09:14:09;;;;;;;22.08;19.67;;;;;;;;;;10096276;28;20047;-67
2022/12/18 09:19:05;;;;;;;23.85;19.02;;;;;;;;;;10092170;28;20556;-68
2022/12/18 09:24:01;;;;;;;31.60;21.23;;;;;;;;;;10096516;28;20042;-67
2022/12/18 09:28:58;;;;;;;24.33;18.38;;;;;;;;;;10094641;28;20820;-67
2022/12/18 09:33:56;;;;;;;23.20;17.77;;;;;;;;;;10091002;28;20392;-68
2022/12/18 09:38:53;;;;;;;21.65;17.55;;;;;;;;;;10095983;28;20043;-70
2022/12/18 09:43:54;;;;;;;24.90;18.38;;;;;;;;;;10105242;28;20043;-69
2022/12/18 09:48:52;;;;;;;20.40;17.17;;;;;;;;;;10102027;28;20118;-69
2022/12/18 09:54:11;;;;;;;26.50;17.45;;;;;;;;;;10119427;28;20047;-67
2022/12/18 09:59:13;;;;;;;23.65;14.93;;;;;;;;;;10083388;28;20066;-69
2022/12/18 10:04:10;;;;;;;21.60;15.00;;;;;;;;;;10102557;28;20568;-68
2022/12/18 10:09:16;;;;;;;20.15;13.02;;;;;;;;;;10100452;28;20052;-68
2022/12/18 10:14:16;;;;;;;18.50;13.35;;;;;;;;;;10101408;28;20186;-67
2022/12/18 10:19:22;;;;;;;21.65;13.77;;;;;;;;;;10103295;28;20050;-68
2022/12/18 10:24:21;;;;;;;20.42;13.65;;;;;;;;;;10114354;28;20655;-68
2022/12/18 10:29:18;;;;;;;23.92;13.45;;;;;;;;;;10110990;28;20047;-68
2022/12/18 10:34:14;;;;;;;22.83;14.05;;;;;;;;;;10117417;28;20050;-68
2022/12/18 10:39:14;;;;;;;23.67;14.75;;;;;;;;;;10123465;28;20055;-68
2022/12/18 10:44:11;;;;;;;20.83;14.07;;;;;;;;;;10124430;28;20554;-69
2022/12/18 10:49:17;;;;;;;24.38;13.80;;;;;;;;;;10134738;28;20141;-68
2022/12/18 10:54:19;;;;;;;21.52;13.63;;;;;;;;;;10119594;28;20054;-68
2022/12/18 10:59:16;;;;;;;24.87;14.20;;;;;;;;;;10101464;28;20146;-68
2022/12/18 11:04:17;;;;;;;19.65;13.68;;;;;;;;;;10105621;28;20051;-68
2022/12/18 11:09:20;;;;;;;24.27;14.50;;;;;;;;;;10083503;28;20171;-68
2022/12/18 11:14:19;;;;;;;21.98;14.63;;;;;;;;;;10107569;28;20509;-68
2022/12/18 11:19:22;;;;;;;18.88;13.27;;;;;;;;;;10104558;28;20043;-66
2022/12/18 11:24:21;;;;;;;20.08;13.63;;;;;;;;;;10103159;28;20046;-67
2022/12/18 11:29:23;;;;;;;19.95;14.38;;;;;;;;;;10103047;28;20482;-67
2022/12/18 11:34:26;;;;;;;23.37;13.30;;;;;;;;;;10122353;28;20149;-67
2022/12/18 11:39:42;;;;;;;21.80;13.38;;;;;;;;;;10130151;28;20508;-67
2022/12/18 11:44:58;;;;;;;23.08;15.75;;;;;;;;;;10122603;28;20047;-68
2022/12/18 11:49:55;;;;;;;21.05;14.93;;;;;;;;;;10105266;28;20042;-67
2022/12/18 11:54:52;;;;;;;20.77;14.68;;;;;;;;;;10126365;28;20058;-67
2022/12/18 11:59:56;;;;;;;23.48;14.27;;;;;;;;;;10117710;28;20535;-68
2022/12/18 12:05:02;;;;;;;23.33;14.60;;;;;;;;;;10109749;28;20039;-67
2022/12/18 12:10:16;;;;;;;21.38;14.60;;;;;;;;;;10100424;28;20058;-68
2022/12/18 12:15:31;;;;;;;22.27;13.73;;;;;;;;;;10104017;28;20137;-69
2022/12/18 12:20:39;;;;;;;20.63;13.63;;;;;;;;;;10100444;28;20070;-68
2022/12/18 12:25:40;;;;;;;25.23;13.52;;;;;;;;;;10099026;28;20051;-69
2022/12/18 12:30:36;;;;;;;20.38;12.52;;;;;;;;;;10096725;28;20141;-69
2022/12/18 12:35:35;;;;;;;18.05;11.85;;;;;;;;;;10104496;28;20065;-68
2022/12/18 12:40:34;;;;;;;21.58;13.55;;;;;;;;;;10111837;28;20081;-69
2022/12/18 12:45:50;;;;;;;23.23;13.43;;;;;;;;;;10102230;28;20046;-69
2022/12/18 12:50:47;;;;;;;22.77;13.82;;;;;;;;;;10111907;28;20141;-68
2022/12/18 12:55:44;;;;;;;23.35;12.88;;;;;;;;;;10099171;28;20139;-69
2022/12/18 13:00:53;;;;;;;20.55;12.10;;;;;;;;;;10111149;28;20046;-69
2022/12/18 13:05:52;;;;;;;19.60;12.70;;;;;;;;;;10105579;28;20488;-68
2022/12/18 13:10:49;;;;;;;18.85;12.98;;;;;;;;;;10106062;28;20050;-69
2022/12/18 13:16:06;;;;;;;26.05;13.55;;;;;;;;;;10107493;28;20137;-69
2022/12/18 13:21:07;;;;;;;22.35;13.18;;;;;;;;;;10106730;28;20042;-69
2022/12/18 13:26:10;;;;;;;25.87;13.60;;;;;;;;;;10106074;28;20130;-69
2022/12/18 13:31:06;;;;;;;;;;;;;;;;;;10105788;28;20066;-68
2022/12/18 13:36:12;;;;;;;21.95;13.98;;;;;;;;;;10101774;28;19945;-69
2022/12/18 13:41:14;;;;;;;25.30;15.63;;;;;;;;;;10104165;28;20043;-69
2022/12/18 13:46:15;;;;;;;24.40;14.68;;;;;;;;;;10099461;28;20047;-69
2022/12/18 13:51:17;;;;;;;24.33;15.13;;;;;;;;;;10105452;28;20173;-68
2022/12/18 13:56:20;;;;;;;25.95;15.57;;;;;;;;;;10103541;28;20054;-70
2022/12/18 14:01:24;;;;;;;26.73;14.60;;;;;;;;;;10106308;28;20039;-69
2022/12/18 14:06:20;;;;;;;26.80;14.30;;;;;;;;;;10106201;28;20070;-69
2022/12/18 14:11:21;;;;;;;28.92;15.73;;;;;;;;;;10111485;28;20042;-69
2022/12/18 14:16:18;;;;;;;25.58;14.68;;;;;;;;;;10109658;28;20081;-69
2022/12/18 14:21:23;;;;;;;27.40;15.95;;;;;;;;;;10105469;28;20136;-69
2022/12/18 14:26:24;;;;;;;28.05;16.65;;;;;;;;;;10105183;28;20050;-69
2022/12/18 14:31:22;;;;;;;30.13;17.70;;;;;;;;;;10107333;28;20065;-69
2022/12/18 14:36:20;;;;;;;32.60;17.23;;;;;;;;;;10101557;28;20043;-69
2022/12/18 14:41:17;;;;;;;37.75;18.77;;;;;;;;;;10107087;28;20058;-70
2022/12/18 14:46:32;;;;;;;33.80;19.33;;;;;;;;;;10113705;28;20263;-69
2022/12/18 14:51:31;;;;;;;35.78;19.92;;;;;;;;;;10107566;28;20039;-69
2022/12/18 14:56:34;;;;;;;30.10;17.75;;;;;;;;;;10104816;28;20428;-69
2022/12/18 15:01:34;;;;;;;32.42;18.80;;;;;;;;;;10107129;28;20046;-69
2022/12/18 15:06:35;;;;;;;33.97;19.30;;;;;;;;;;10113614;28;20043;-69
2022/12/18 15:11:36;;;;;;;32.60;18.73;;;;;;;;;;10114272;28;20042;-68
2022/12/18 15:16:32;;;;;;;35.35;20.15;;;;;;;;;;10112628;28;20436;-69
2022/12/18 15:21:31;;;;;;;34.65;18.38;;;;;;;;;;10113780;28;20081;-69
2022/12/18 15:26:36;;;;;;;35.15;19.67;;;;;;;;;;10115028;28;20055;-68
2022/12/18 15:31:35;;;;;;;35.47;19.55;;;;;;;;;;10113857;28;20139;-68
2022/12/18 15:36:31;;;;;;;29.60;18.42;;;;;;;;;;10113505;28;20047;-68
2022/12/18 15:41:27;;;;;;;32.97;18.38;;;;;;;;;;10118965;28;20054;-68
2022/12/18 15:46:24;;;;;;;36.58;21.05;;;;;;;;;;10110168;28;20057;-68
2022/12/18 15:51:34;;;;;;;38.03;19.73;;;;;;;;;;10113473;28;20109;-68
2022/12/18 16:01:47;;;;;;;31.85;19.38;;;;;;;;;;10109360;28;20081;-68
2022/12/18 16:06:43;;;;;;;29.88;18.70;;;;;;;;;;10115847;28;20046;-69
2022/12/18 16:12:00;;;;;;;31.73;18.33;;;;;;;;;;10118199;28;20418;-68
2022/12/18 16:17:01;;;;;;;36.45;21.02;;;;;;;;;;10111584;28;20493;-69
2022/12/18 16:21:58;;;;;;;30.73;19.50;;;;;;;;;;10128277;28;20462;-68
2022/12/18 16:26:56;;;;;;;31.58;18.10;;;;;;;;;;10112967;28;20061;-68
2022/12/18 16:31:55;;;;;;;35.00;21.13;;;;;;;;;;10138283;28;20060;-68
2022/12/18 16:36:53;;;;;;;32.33;18.83;;;;;;;;;;10109457;28;20058;-68
2022/12/18 16:41:49;;;;;;;32.33;20.27;;;;;;;;;;10107792;28;20070;-68
2022/12/18 16:46:45;;;;;;;31.17;18.73;;;;;;;;;;10121616;28;20066;-69
2022/12/18 16:51:42;;;;;;;32.40;20.50;;;;;;;;;;10110400;28;20047;-69
2022/12/18 16:56:38;;;;;;;34.20;19.05;;;;;;;;;;10110818;28;20531;-69
2022/12/18 17:01:35;;;;;;;32.95;19.45;;;;;;;;;;10126895;28;20501;-69
2022/12/18 17:06:34;;;;;;;30.58;18.40;;;;;;;;;;10111047;28;20046;-69
2022/12/18 17:11:32;;;;;;;31.00;19.27;;;;;;;;;;10102099;28;20074;-69
2022/12/18 17:16:28;;;;;;;34.28;19.40;;;;;;;;;;10119880;28;20065;-68
2022/12/18 17:21:24;;;;;;;36.15;20.08;;;;;;;;;;10107518;28;20109;-70
2022/12/18 17:26:21;;;;;;;27.63;18.20;;;;;;;;;;10114075;28;20149;-69
2022/12/18 17:31:18;;;;;;;29.67;18.08;;;;;;;;;;10108669;28;20552;-70
2022/12/18 17:36:15;;;;;;;28.33;18.00;;;;;;;;;;10103497;28;20054;-69
2022/12/18 17:41:11;;;;;;;26.13;17.50;;;;;;;;;;10103704;28;20070;-69
2022/12/18 17:46:11;;;;;;;28.73;16.27;;;;;;;;;;10108664;28;20049;-69
2022/12/18 17:51:08;;;;;;;27.38;17.30;;;;;;;;;;10124728;28;20050;-69
2022/12/18 17:56:06;;;;;;;27.00;16.77;;;;;;;;;;10108339;28;20054;-69
2022/12/18 18:01:03;;;;;;;24.17;15.82;;;;;;;;;;10109539;28;20042;-69
2022/12/18 18:06:00;;;;;;;26.63;17.02;;;;;;;;;;10110932;28;20054;-69
2022/12/18 18:13:59;;;;;;;22.17;16.00;;;;;;;;;;10106833;28;20106;-69
2022/12/18 18:16:19;;;;;;;26.93;17.57;;;;;;;;;;10113703;28;20129;-69
2022/12/18 18:21:15;;;;;;;25.33;16.25;;;;;;;;;;10107796;28;20093;-69
2022/12/18 18:26:12;;;;;;;26.80;16.40;;;;;;;;;;10108842;28;20051;-68
2022/12/18 18:31:09;;;;;;;21.05;15.18;;;;;;;;;;10105410;28;20050;-68
2022/12/18 18:36:08;;;;;;;23.67;17.05;;;;;;;;;;10109339;28;20724;-68
2022/12/18 18:41:04;;;;;;;21.90;15.45;;;;;;;;;;10104779;28;20045;-69
2022/12/18 18:46:01;;;;;;;25.45;15.13;;;;;;;;;;10118489;28;20047;-68
2022/12/18 18:51:03;;;;;;;20.55;15.05;;;;;;;;;;10113316;28;20620;-70
2022/12/18 18:55:59;;;;;;;23.67;16.15;;;;;;;;;;10110838;28;20134;-68
2022/12/18 19:01:16;;;;;;;21.80;15.10;;;;;;;;;;10115517;28;20053;-69
2022/12/18 19:06:15;;;;;;;27.25;15.57;;;;;;;;;;10114189;28;20543;-68
2022/12/18 19:16:32;;;;;;;20.80;14.30;;;;;;;;;;10119876;28;20042;-69
2022/12/18 19:21:30;;;;;;;22.77;15.15;;;;;;;;;;10113841;28;20523;-69
2022/12/18 19:26:29;;;;;;;22.13;15.43;;;;;;;;;;10092881;28;20121;-68
2022/12/18 19:31:25;;;;;;;21.30;15.57;;;;;;;;;;10113820;28;20066;-67
2022/12/18 19:36:31;;;;;;;20.83;14.75;;;;;;;;;;10112340;28;20500;-67
2022/12/18 19:41:28;;;;;;;21.02;14.82;;;;;;;;;;10117848;28;20473;-67
2022/12/18 19:46:28;;;;;;;20.52;13.60;;;;;;;;;;10106366;28;20054;-67
2022/12/18 19:51:26;;;;;;;19.20;14.43;;;;;;;;;;10111312;28;20071;-67
2022/12/18 19:56:24;;;;;;;23.48;15.13;;;;;;;;;;10114562;28;20074;-66
2022/12/18 20:01:21;;;;;;;28.42;15.32;;;;;;;;;;10108360;28;20055;-67
2022/12/18 20:06:22;;;;;;;24.33;15.38;;;;;;;;;;10094034;28;20133;-66
2022/12/18 20:11:19;;;;;;;24.30;14.77;;;;;;;;;;10124676;28;20082;-67
2022/12/18 20:16:16;;;;;;;26.63;16.27;;;;;;;;;;10102949;28;20070;-67
2022/12/18 20:21:12;;;;;;;30.30;16.83;;;;;;;;;;10101924;28;20575;-68
2022/12/18 20:26:09;;;;;;;30.70;16.13;;;;;;;;;;10116685;28;20658;-68
2022/12/18 20:31:07;;;;;;;25.75;15.68;;;;;;;;;;10116145;28;20071;-69
2022/12/18 20:36:08;;;;;;;;;;;;;;;;;;10115081;28;20390;-68
2022/12/18 20:41:10;;;;;;;27.23;16.40;;;;;;;;;;10118710;28;20005;-68
2022/12/18 20:46:08;;;;;;;23.88;16.10;;;;;;;;;;10106425;28;20050;-68
2022/12/18 20:51:06;;;;;;;25.58;16.02;;;;;;;;;;10100852;28;20452;-68
2022/12/18 20:56:06;;;;;;;29.95;15.95;;;;;;;;;;10095977;28;20049;-68
2022/12/18 21:01:06;;;;;;;30.20;17.95;;;;;;;;;;10106163;28;20053;-66
2022/12/18 21:06:03;;;;;;;26.08;17.15;;;;;;;;;;10102943;28;20054;-67
2022/12/18 21:16:28;;;;;;;27.13;16.85;;;;;;;;;;10112745;28;20038;-70
2022/12/18 21:21:24;;;;;;;26.63;15.70;;;;;;;;;;10106025;28;20051;-70
2022/12/18 21:26:23;;;;;;;27.70;16.38;;;;;;;;;;10105229;28;20050;-70
2022/12/18 21:31:21;;;;;;;24.67;16.80;;;;;;;;;;10103703;28;20131;-70
2022/12/18 21:36:17;;;;;;;25.00;16.10;;;;;;;;;;10103178;28;20606;-69
2022/12/18 21:46:39;;;;;;;26.10;16.95;;;;;;;;;;10117403;28;20048;-70
2022/12/18 21:51:35;;;;;;;27.50;16.67;;;;;;;;;;10106871;28;20092;-70
2022/12/18 21:56:46;;;;;;;30.40;18.80;;;;;;;;;;10117478;28;20074;-70
2022/12/18 22:01:43;;;;;;;30.02;17.50;;;;;;;;;;10116998;28;20058;-70
2022/12/18 22:06:41;;;;;;;27.42;16.88;;;;;;;;;;10138772;28;20052;-70
2022/12/18 22:11:37;;;;;;;27.75;17.25;;;;;;;;;;10133283;28;20073;-67
2022/12/18 22:16:34;;;;;;;32.35;18.67;;;;;;;;;;10113807;28;20133;-68
2022/12/18 22:21:32;;;;;;;32.58;18.65;;;;;;;;;;10121100;28;20070;-69
2022/12/18 22:26:29;;;;;;;25.75;17.80;;;;;;;;;;10111242;28;20094;-69
2022/12/18 22:31:33;;;;;;;23.63;16.17;;;;;;;;;;10114688;28;20496;-67
2022/12/18 22:36:36;;;;;;;30.33;17.95;;;;;;;;;;10120679;28;20042;-66
2022/12/18 22:41:32;;;;;;;28.67;17.30;;;;;;;;;;10128872;28;20763;-69
2022/12/18 22:46:33;;;;;;;27.85;17.38;;;;;;;;;;10111429;28;20050;-69
2022/12/18 22:51:30;;;;;;;26.85;17.48;;;;;;;;;;10121392;28;20074;-67
2022/12/18 22:56:26;;;;;;;30.65;17.05;;;;;;;;;;10117903;28;20148;-67
2022/12/18 23:01:23;;;;;;;29.38;16.88;;;;;;;;;;10126224;28;20515;-68
2022/12/18 23:06:21;;;;;;;27.52;16.77;;;;;;;;;;10114315;28;20039;-68
2022/12/18 23:11:17;;;;;;;30.95;17.95;;;;;;;;;;10109881;28;20125;-70
2022/12/18 23:16:15;;;;;;;30.73;17.00;;;;;;;;;;10113694;28;20047;-70
2022/12/18 23:21:15;;;;;;;26.48;16.27;;;;;;;;;;10121856;28;20047;-68
2022/12/18 23:26:13;;;;;;;25.60;17.45;;;;;;;;;;10120464;28;20050;-68
2022/12/18 23:31:14;;;;;;;24.42;16.23;;;;;;;;;;10120591;28;20060;-68
2022/12/18 23:36:12;;;;;;;28.70;17.33;;;;;;;;;;10120108;28;20049;-68
2022/12/18 23:41:09;;;;;;;28.42;16.20;;;;;;;;;;10128597;28;20501;-69
2022/12/18 23:46:09;;;;;;;31.10;17.00;;;;;;;;;;10129298;28;20133;-69
2022/12/18 23:51:07;;;;;;;26.63;16.88;;;;;;;;;;10122142;28;20106;-67
2022/12/18 23:56:07;;;;;;;24.35;16.20;;;;;;;;;;10120098;28;20092;-69
